Majors

About
Name: Majors
Identifier:  GVT/KGVT
Local Time:  25. Aug 04:06 CDT
Location
Flights per Day
0 flights
Punctuality
0% (0 flights per day delayed)
Delay Average: 44 minutes
Current Weather
 26 C (Humidity: 83%)
  0kt (0km/h / 0mph) from 0°
  16km (10 mi.)
 
 METAR KGVT 250835Z AUTO 00000KT 10SM CLR 26/23 A2990 RMK AO2

Current Flights

Departures
Number Departure To Airline
Arrivals
Number Arrival From Airline

Current Delays

Departures
N/A
Arrivals
N/A

Destinations

Top Destinations
Airport Flights
per week
Seats
per week
  Dallas (ADS) 0 - 0 0
  Joplin (JLN) 0 - 0 0
  Longview (GGG) 0 - 0 0
  Enid (WDG) 0 - 0 0
  Dallas (DFW) 0 - 0 0
  Austin (AUS) 0 - 0 0
  Denver (APA) 0 - 0 0

Airlines & Planes

Top Airlines
Airline Flights
per Day
Seats
per Day
Nordwind Airlines 0 -
Jet Charter Inc ( Franklin Lakes Nj ) 0 -
  National Airlines 0 -
  Nolinor Aviation 0 -
Southern Airways Express 0 -
Top Plane Types
Model Flights Seats
Piper PA28-181 0.1/day - 0
Cessna C208 0.1/day - 0
Cessna C172 0.1/day - 0
Beech B300 Super King Air 350 0.1/day - 0
Cirrus SR22 0.0/day - 0